sensor_id;sensor_type;location;lat;lon;timestamp;pressure;altitude;pressure_sealevel;temperature;humidity
68871;BME280;55906;52.278;6.808;2023-04-15T00:00:16;100764.13;;;9.73;59.29
68871;BME280;55906;52.278;6.808;2023-04-15T00:02:43;100765.75;;;9.69;59.55
68871;BME280;55906;52.278;6.808;2023-04-15T00:05:09;100766.50;;;9.63;60.80
68871;BME280;55906;52.278;6.808;2023-04-15T00:07:36;100766.41;;;9.60;60.22
68871;BME280;55906;52.278;6.808;2023-04-15T00:10:05;100762.84;;;9.58;61.52
68871;BME280;55906;52.278;6.808;2023-04-15T00:12:32;100767.97;;;9.54;60.91
68871;BME280;55906;52.278;6.808;2023-04-15T00:14:58;100761.75;;;9.50;61.32
68871;BME280;55906;52.278;6.808;2023-04-15T00:17:25;100766.91;;;9.47;61.14
68871;BME280;55906;52.278;6.808;2023-04-15T00:19:52;100763.25;;;9.42;60.74
68871;BME280;55906;52.278;6.808;2023-04-15T00:22:19;100766.63;;;9.38;61.85
68871;BME280;55906;52.278;6.808;2023-04-15T00:24:45;100781.41;;;9.35;61.87
68871;BME280;55906;52.278;6.808;2023-04-15T00:27:13;100776.13;;;9.33;61.38
68871;BME280;55906;52.278;6.808;2023-04-15T00:29:40;100769.88;;;9.29;61.53
68871;BME280;55906;52.278;6.808;2023-04-15T00:32:07;100769.81;;;9.26;62.26
68871;BME280;55906;52.278;6.808;2023-04-15T00:34:34;100764.50;;;9.25;62.21
68871;BME280;55906;52.278;6.808;2023-04-15T00:37:01;100770.56;;;9.22;61.83
68871;BME280;55906;52.278;6.808;2023-04-15T00:39:27;100765.97;;;9.15;62.24
68871;BME280;55906;52.278;6.808;2023-04-15T00:41:54;100762.31;;;9.10;62.70
68871;BME280;55906;52.278;6.808;2023-04-15T00:44:23;100767.50;;;9.09;62.82
68871;BME280;55906;52.278;6.808;2023-04-15T00:46:50;100773.44;;;9.03;62.71
68871;BME280;55906;52.278;6.808;2023-04-15T00:49:17;100780.28;;;8.98;62.85
68871;BME280;55906;52.278;6.808;2023-04-15T00:51:43;100776.72;;;8.96;63.32
68871;BME280;55906;52.278;6.808;2023-04-15T00:54:10;100780.97;;;8.92;63.66
68871;BME280;55906;52.278;6.808;2023-04-15T00:56:38;100780.91;;;8.89;63.63
68871;BME280;55906;52.278;6.808;2023-04-15T00:59:05;100781.59;;;8.84;64.12
68871;BME280;55906;52.278;6.808;2023-04-15T01:01:34;100778.81;;;8.79;63.59
68871;BME280;55906;52.278;6.808;2023-04-15T01:04:01;100777.78;;;8.74;63.88
68871;BME280;55906;52.278;6.808;2023-04-15T01:06:29;100775.88;;;8.69;63.80
68871;BME280;55906;52.278;6.808;2023-04-15T01:08:56;100788.72;;;8.61;64.26
68871;BME280;55906;52.278;6.808;2023-04-15T01:11:23;100776.47;;;8.60;64.30
68871;BME280;55906;52.278;6.808;2023-04-15T01:13:51;100775.53;;;8.58;64.41
68871;BME280;55906;52.278;6.808;2023-04-15T01:16:18;100780.63;;;8.53;64.96
68871;BME280;55906;52.278;6.808;2023-04-15T01:18:47;100779.53;;;8.47;65.23
68871;BME280;55906;52.278;6.808;2023-04-15T01:21:14;100780.31;;;8.44;65.84
68871;BME280;55906;52.278;6.808;2023-04-15T01:23:42;100776.81;;;8.44;65.13
68871;BME280;55906;52.278;6.808;2023-04-15T01:26:11;100782.88;;;8.43;64.92
68871;BME280;55906;52.278;6.808;2023-04-15T01:28:38;100779.22;;;8.38;64.93
68871;BME280;55906;52.278;6.808;2023-04-15T01:31:08;100778.34;;;8.37;65.79
68871;BME280;55906;52.278;6.808;2023-04-15T01:33:35;100778.09;;;8.31;65.39
68871;BME280;55906;52.278;6.808;2023-04-15T01:36:03;100777.16;;;8.29;65.61
68871;BME280;55906;52.278;6.808;2023-04-15T01:38:30;100782.34;;;8.27;65.69
68871;BME280;55906;52.278;6.808;2023-04-15T01:40:57;100782.16;;;8.21;66.08
68871;BME280;55906;52.278;6.808;2023-04-15T01:43:26;100782.97;;;8.20;66.66
68871;BME280;55906;52.278;6.808;2023-04-15T01:45:52;100781.06;;;8.15;66.23
68871;BME280;55906;52.278;6.808;2023-04-15T01:48:19;100774.81;;;8.11;66.03
68871;BME280;55906;52.278;6.808;2023-04-15T01:50:46;100779.06;;;8.08;67.02
68871;BME280;55906;52.278;6.808;2023-04-15T01:53:13;100780.69;;;8.04;66.50
68871;BME280;55906;52.278;6.808;2023-04-15T01:55:40;100793.69;;;8.01;66.56
68871;BME280;55906;52.278;6.808;2023-04-15T01:58:06;100793.56;;;7.98;66.35
68871;BME280;55906;52.278;6.808;2023-04-15T02:00:34;100791.69;;;7.94;67.44
68871;BME280;55906;52.278;6.808;2023-04-15T02:03:01;100790.56;;;7.87;66.96
68871;BME280;55906;52.278;6.808;2023-04-15T02:05:28;100787.84;;;7.84;67.54
68871;BME280;55906;52.278;6.808;2023-04-15T02:07:54;100789.53;;;7.82;67.09
68871;BME280;55906;52.278;6.808;2023-04-15T02:10:21;100787.53;;;7.77;67.73
68871;BME280;55906;52.278;6.808;2023-04-15T02:12:48;100789.09;;;7.71;68.04
68871;BME280;55906;52.278;6.808;2023-04-15T02:15:14;100784.59;;;7.67;68.33
68871;BME280;55906;52.278;6.808;2023-04-15T02:17:43;100787.16;;;7.66;68.14
68871;BME280;55906;52.278;6.808;2023-04-15T02:20:15;100784.44;;;7.63;69.24
68871;BME280;55906;52.278;6.808;2023-04-15T02:22:41;100786.09;;;7.61;68.60
68871;BME280;55906;52.278;6.808;2023-04-15T02:25:09;100791.34;;;7.61;68.88
68871;BME280;55906;52.278;6.808;2023-04-15T02:27:35;100799.09;;;7.58;69.33
68871;BME280;55906;52.278;6.808;2023-04-15T02:30:02;100795.47;;;7.54;69.17
68871;BME280;55906;52.278;6.808;2023-04-15T02:32:29;100806.59;;;7.49;69.00
68871;BME280;55906;52.278;6.808;2023-04-15T02:35:01;100803.03;;;7.47;68.95
68871;BME280;55906;52.278;6.808;2023-04-15T02:37:28;100805.38;;;7.39;70.98
68871;BME280;55906;52.278;6.808;2023-04-15T02:39:56;100810.47;;;7.36;70.56
68871;BME280;55906;52.278;6.808;2023-04-15T02:42:22;100820.00;;;7.34;70.40
68871;BME280;55906;52.278;6.808;2023-04-15T02:44:51;100823.34;;;7.30;69.95
68871;BME280;55906;52.278;6.808;2023-04-15T02:47:19;100825.84;;;7.27;70.22
68871;BME280;55906;52.278;6.808;2023-04-15T02:49:45;100824.88;;;7.25;70.55
68871;BME280;55906;52.278;6.808;2023-04-15T02:52:13;100827.50;;;7.25;71.16
68871;BME280;55906;52.278;6.808;2023-04-15T02:54:40;100831.78;;;7.23;70.29
68871;BME280;55906;52.278;6.808;2023-04-15T02:57:07;100834.28;;;7.20;70.23
68871;BME280;55906;52.278;6.808;2023-04-15T02:59:34;100836.84;;;7.18;70.40
68871;BME280;55906;52.278;6.808;2023-04-15T03:02:01;100843.78;;;7.18;70.97
68871;BME280;55906;52.278;6.808;2023-04-15T03:04:28;100836.72;;;7.15;70.35
68871;BME280;55906;52.278;6.808;2023-04-15T03:06:55;100843.63;;;7.13;69.81
68871;BME280;55906;52.278;6.808;2023-04-15T03:09:23;100839.94;;;7.08;71.96
68871;BME280;55906;52.278;6.808;2023-04-15T03:11:50;100843.31;;;7.05;71.04
68871;BME280;55906;52.278;6.808;2023-04-15T03:14:18;100844.03;;;7.01;72.08
68871;BME280;55906;52.278;6.808;2023-04-15T03:16:45;100847.28;;;6.96;71.98
68871;BME280;55906;52.278;6.808;2023-04-15T03:19:12;100854.97;;;6.91;72.23
68871;BME280;55906;52.278;6.808;2023-04-15T03:21:38;100853.00;;;6.86;73.12
68871;BME280;55906;52.278;6.808;2023-04-15T03:24:05;100856.38;;;6.83;72.41
68871;BME280;55906;52.278;6.808;2023-04-15T03:26:33;100854.47;;;6.79;73.88
68871;BME280;55906;52.278;6.808;2023-04-15T03:28:59;100849.09;;;6.76;74.04
68871;BME280;55906;52.278;6.808;2023-04-15T03:31:26;100849.94;;;6.75;74.43
68871;BME280;55906;52.278;6.808;2023-04-15T03:33:53;100852.31;;;6.69;75.13
68871;BME280;55906;52.278;6.808;2023-04-15T03:36:19;100854.97;;;6.70;74.75
68871;BME280;55906;52.278;6.808;2023-04-15T03:38:46;100851.47;;;6.70;73.89
68871;BME280;55906;52.278;6.808;2023-04-15T03:41:13;100854.91;;;6.69;74.10
68871;BME280;55906;52.278;6.808;2023-04-15T03:43:41;100859.25;;;6.68;75.20
68871;BME280;55906;52.278;6.808;2023-04-15T03:46:08;100862.56;;;6.64;74.58
68871;BME280;55906;52.278;6.808;2023-04-15T03:48:34;100864.28;;;6.64;74.99
68871;BME280;55906;52.278;6.808;2023-04-15T03:51:01;100867.72;;;6.63;74.87
68871;BME280;55906;52.278;6.808;2023-04-15T03:53:28;100866.78;;;6.61;73.72
68871;BME280;55906;52.278;6.808;2023-04-15T03:55:54;100874.50;;;6.58;75.21
68871;BME280;55906;52.278;6.808;2023-04-15T03:58:21;100875.19;;;6.54;76.31
68871;BME280;55906;52.278;6.808;2023-04-15T04:00:49;100879.59;;;6.55;74.67
68871;BME280;55906;52.278;6.808;2023-04-15T04:03:16;100880.34;;;6.52;74.75
68871;BME280;55906;52.278;6.808;2023-04-15T04:05:42;100886.41;;;6.51;75.69
68871;BME280;55906;52.278;6.808;2023-04-15T04:08:09;100886.19;;;6.47;76.24
68871;BME280;55906;52.278;6.808;2023-04-15T04:10:38;100894.03;;;6.47;75.34
68871;BME280;55906;52.278;6.808;2023-04-15T04:13:04;100897.34;;;6.42;76.34
68871;BME280;55906;52.278;6.808;2023-04-15T04:15:31;100897.19;;;6.39;78.85
68871;BME280;55906;52.278;6.808;2023-04-15T04:17:59;100891.09;;;6.39;76.46
68871;BME280;55906;52.278;6.808;2023-04-15T04:20:25;100898.03;;;6.38;76.74
68871;BME280;55906;52.278;6.808;2023-04-15T04:22:52;100891.78;;;6.35;77.34
68871;BME280;55906;52.278;6.808;2023-04-15T04:25:18;100895.16;;;6.32;75.92
68871;BME280;55906;52.278;6.808;2023-04-15T04:27:45;100900.38;;;6.32;76.26
68871;BME280;55906;52.278;6.808;2023-04-15T04:30:12;100903.81;;;6.31;75.31
68871;BME280;55906;52.278;6.808;2023-04-15T04:32:38;100901.97;;;6.29;77.01
68871;BME280;55906;52.278;6.808;2023-04-15T04:35:07;100911.53;;;6.28;76.80
68871;BME280;55906;52.278;6.808;2023-04-15T04:37:34;100905.34;;;6.26;76.27
68871;BME280;55906;52.278;6.808;2023-04-15T04:40:01;100906.16;;;6.25;76.61
68871;BME280;55906;52.278;6.808;2023-04-15T04:42:28;100917.38;;;6.23;76.60
68871;BME280;55906;52.278;6.808;2023-04-15T04:44:54;100914.75;;;6.23;77.18
68871;BME280;55906;52.278;6.808;2023-04-15T04:47:21;100917.31;;;6.21;76.58
68871;BME280;55906;52.278;6.808;2023-04-15T04:49:48;100913.81;;;6.21;77.07
68871;BME280;55906;52.278;6.808;2023-04-15T04:52:16;100910.22;;;6.19;77.19
68871;BME280;55906;52.278;6.808;2023-04-15T04:54:42;100912.78;;;6.17;77.11
68871;BME280;55906;52.278;6.808;2023-04-15T04:57:09;100917.09;;;6.17;77.43
68871;BME280;55906;52.278;6.808;2023-04-15T04:59:37;100918.81;;;6.16;77.34
68871;BME280;55906;52.278;6.808;2023-04-15T05:02:04;100921.44;;;6.16;77.27
68871;BME280;55906;52.278;6.808;2023-04-15T05:04:31;100919.72;;;6.17;76.55
68871;BME280;55906;52.278;6.808;2023-04-15T05:06:57;100915.38;;;6.17;77.03
68871;BME280;55906;52.278;6.808;2023-04-15T05:09:26;100926.94;;;6.22;77.64
68871;BME280;55906;52.278;6.808;2023-04-15T05:11:53;100925.22;;;6.23;77.30
68871;BME280;55906;52.278;6.808;2023-04-15T05:14:20;100928.84;;;6.26;77.22
68871;BME280;55906;52.278;6.808;2023-04-15T05:16:47;100930.69;;;6.29;77.91
68871;BME280;55906;52.278;6.808;2023-04-15T05:19:14;100925.59;;;6.32;77.01
68871;BME280;55906;52.278;6.808;2023-04-15T05:21:40;100941.47;;;6.36;76.10
68871;BME280;55906;52.278;6.808;2023-04-15T05:24:07;100945.88;;;6.37;76.22
68871;BME280;55906;52.278;6.808;2023-04-15T05:26:35;100939.06;;;6.41;78.05
68871;BME280;55906;52.278;6.808;2023-04-15T05:29:02;100949.72;;;6.46;77.07
68871;BME280;55906;52.278;6.808;2023-04-15T05:31:28;100949.84;;;6.49;76.49
68871;BME280;55906;52.278;6.808;2023-04-15T05:33:55;100953.47;;;6.51;76.33
68871;BME280;55906;52.278;6.808;2023-04-15T05:36:22;100960.59;;;6.55;77.06
68871;BME280;55906;52.278;6.808;2023-04-15T05:38:48;100961.63;;;6.58;76.14
68871;BME280;55906;52.278;6.808;2023-04-15T05:41:15;100967.06;;;6.63;76.19
68871;BME280;55906;52.278;6.808;2023-04-15T05:43:43;100961.97;;;6.66;76.03
68871;BME280;55906;52.278;6.808;2023-04-15T05:46:10;100968.09;;;6.66;76.27
68871;BME280;55906;52.278;6.808;2023-04-15T05:48:36;100983.00;;;6.69;75.49
68871;BME280;55906;52.278;6.808;2023-04-15T05:51:03;100979.56;;;6.70;76.42
68871;BME280;55906;52.278;6.808;2023-04-15T05:53:30;100976.19;;;6.72;76.60
68871;BME280;55906;52.278;6.808;2023-04-15T05:55:57;100986.91;;;6.79;76.08
68871;BME280;55906;52.278;6.808;2023-04-15T05:58:23;100993.16;;;6.82;76.76
68871;BME280;55906;52.278;6.808;2023-04-15T06:00:51;100996.09;;;6.90;77.08
68871;BME280;55906;52.278;6.808;2023-04-15T06:03:18;100990.09;;;6.92;77.35
68871;BME280;55906;52.278;6.808;2023-04-15T06:05:46;101000.88;;;7.00;76.72
68871;BME280;55906;52.278;6.808;2023-04-15T06:08:12;101000.31;;;7.07;77.22
68871;BME280;55906;52.278;6.808;2023-04-15T06:10:39;100999.81;;;7.16;78.09
68871;BME280;55906;52.278;6.808;2023-04-15T06:13:06;101008.91;;;7.25;77.48
68871;BME280;55906;52.278;6.808;2023-04-15T06:15:33;101004.13;;;7.36;79.00
68871;BME280;55906;52.278;6.808;2023-04-15T06:18:01;101007.47;;;7.54;77.08
68871;BME280;55906;52.278;6.808;2023-04-15T06:20:27;101017.63;;;7.67;75.92
68871;BME280;55906;52.278;6.808;2023-04-15T06:22:54;101010.19;;;7.78;76.58
68871;BME280;55906;52.278;6.808;2023-04-15T06:25:21;101009.91;;;7.93;76.31
68871;BME280;55906;52.278;6.808;2023-04-15T06:27:48;101016.50;;;8.06;75.41
68871;BME280;55906;52.278;6.808;2023-04-15T06:30:15;101022.44;;;8.24;75.22
68871;BME280;55906;52.278;6.808;2023-04-15T06:32:41;101017.69;;;8.36;74.98
68871;BME280;55906;52.278;6.808;2023-04-15T06:35:10;101017.25;;;8.48;74.97
68871;BME280;55906;52.278;6.808;2023-04-15T06:37:36;101013.91;;;8.52;75.52
68871;BME280;55906;52.278;6.808;2023-04-15T06:40:04;101013.34;;;8.60;74.97
68871;BME280;55906;52.278;6.808;2023-04-15T06:42:31;101025.06;;;8.70;74.87
68871;BME280;55906;52.278;6.808;2023-04-15T06:44:58;101021.69;;;8.74;74.71
68871;BME280;55906;52.278;6.808;2023-04-15T06:47:25;101021.13;;;8.83;74.49
68871;BME280;55906;52.278;6.808;2023-04-15T06:49:51;101020.44;;;8.88;74.59
68871;BME280;55906;52.278;6.808;2023-04-15T06:52:20;101023.28;;;8.94;74.27
68871;BME280;55906;52.278;6.808;2023-04-15T06:54:46;101027.91;;;9.02;74.01
68871;BME280;55906;52.278;6.808;2023-04-15T06:57:13;101029.81;;;9.06;74.31
68871;BME280;55906;52.278;6.808;2023-04-15T06:59:39;101029.91;;;9.09;74.23
68871;BME280;55906;52.278;6.808;2023-04-15T07:02:09;101031.97;;;9.17;74.62
68871;BME280;55906;52.278;6.808;2023-04-15T07:04:37;101037.38;;;9.22;74.32
68871;BME280;55906;52.278;6.808;2023-04-15T07:07:04;101039.47;;;9.32;74.60
68871;BME280;55906;52.278;6.808;2023-04-15T07:09:33;101038.69;;;9.35;74.14
68871;BME280;55906;52.278;6.808;2023-04-15T07:12:00;101033.69;;;9.42;73.87
68871;BME280;55906;52.278;6.808;2023-04-15T07:14:27;101034.94;;;9.53;73.85
68871;BME280;55906;52.278;6.808;2023-04-15T07:16:53;101036.53;;;9.48;74.42
68871;BME280;55906;52.278;6.808;2023-04-15T07:19:20;101034.53;;;9.68;73.56
68871;BME280;55906;52.278;6.808;2023-04-15T07:21:48;101040.78;;;9.72;74.12
68871;BME280;55906;52.278;6.808;2023-04-15T07:24:15;101045.03;;;9.95;72.73
68871;BME280;55906;52.278;6.808;2023-04-15T07:26:45;101052.94;;;9.97;72.90
68871;BME280;55906;52.278;6.808;2023-04-15T07:29:12;101052.47;;;10.10;72.90
68871;BME280;55906;52.278;6.808;2023-04-15T07:31:39;101049.25;;;10.18;72.63
68871;BME280;55906;52.278;6.808;2023-04-15T07:34:06;101052.03;;;10.23;73.24
68871;BME280;55906;52.278;6.808;2023-04-15T07:36:33;101062.25;;;10.14;73.12
68871;BME280;55906;52.278;6.808;2023-04-15T07:38:59;101056.41;;;9.95;73.40
68871;BME280;55906;52.278;6.808;2023-04-15T07:41:28;101065.38;;;10.02;73.97
68871;BME280;55906;52.278;6.808;2023-04-15T07:43:56;101059.88;;;10.21;73.35
68871;BME280;55906;52.278;6.808;2023-04-15T07:46:23;101063.94;;;10.12;73.77
68871;BME280;55906;52.278;6.808;2023-04-15T07:48:51;101065.44;;;10.04;73.43
68871;BME280;55906;52.278;6.808;2023-04-15T07:51:18;101071.78;;;10.10;73.37
68871;BME280;55906;52.278;6.808;2023-04-15T07:53:45;101072.38;;;10.02;73.52
68871;BME280;55906;52.278;6.808;2023-04-15T07:56:11;101076.50;;;10.20;73.06
68871;BME280;55906;52.278;6.808;2023-04-15T07:58:38;101079.47;;;10.04;73.37
68871;BME280;55906;52.278;6.808;2023-04-15T08:01:07;101078.38;;;10.24;72.53
68871;BME280;55906;52.278;6.808;2023-04-15T08:03:33;101076.97;;;10.36;72.21
68871;BME280;55906;52.278;6.808;2023-04-15T08:06:00;101082.31;;;10.39;72.28
68871;BME280;55906;52.278;6.808;2023-04-15T08:08:27;101082.31;;;10.39;72.42
68871;BME280;55906;52.278;6.808;2023-04-15T08:10:53;101087.06;;;10.22;72.76
68871;BME280;55906;52.278;6.808;2023-04-15T08:13:20;101092.22;;;10.46;72.00
68871;BME280;55906;52.278;6.808;2023-04-15T08:16:19;101091.97;;;10.68;71.23
68871;BME280;55906;52.278;6.808;2023-04-15T08:18:47;101098.63;;;10.85;70.99
68871;BME280;55906;52.278;6.808;2023-04-15T08:21:15;101093.56;;;10.93;71.06
68871;BME280;55906;52.278;6.808;2023-04-15T08:23:42;101104.00;;;10.90;70.48
68871;BME280;55906;52.278;6.808;2023-04-15T08:26:09;101095.19;;;10.88;70.54
68871;BME280;55906;52.278;6.808;2023-04-15T08:28:37;101099.25;;;10.77;69.92
68871;BME280;55906;52.278;6.808;2023-04-15T08:31:04;101108.25;;;10.85;70.39
68871;BME280;55906;52.278;6.808;2023-04-15T08:33:32;101101.63;;;10.68;70.36
68871;BME280;55906;52.278;6.808;2023-04-15T08:35:59;101099.78;;;10.65;70.97
68871;BME280;55906;52.278;6.808;2023-04-15T08:38:26;101100.50;;;10.89;70.25
68871;BME280;55906;52.278;6.808;2023-04-15T08:40:52;101100.75;;;10.99;69.55
68871;BME280;55906;52.278;6.808;2023-04-15T08:43:21;101100.91;;;11.05;69.72
68871;BME280;55906;52.278;6.808;2023-04-15T08:45:49;101107.97;;;11.06;69.88
68871;BME280;55906;52.278;6.808;2023-04-15T08:48:16;101111.69;;;11.14;69.76
68871;BME280;55906;52.278;6.808;2023-04-15T08:50:45;101107.94;;;11.37;68.79
68871;BME280;55906;52.278;6.808;2023-04-15T08:53:13;101111.47;;;11.71;67.44
68871;BME280;55906;52.278;6.808;2023-04-15T08:55:42;101109.13;;;11.81;67.22
68871;BME280;55906;52.278;6.808;2023-04-15T08:58:09;101116.88;;;11.77;66.97
68871;BME280;55906;52.278;6.808;2023-04-15T09:00:36;101117.22;;;11.89;66.93
68871;BME280;55906;52.278;6.808;2023-04-15T09:03:03;101122.75;;;12.00;66.56
68871;BME280;55906;52.278;6.808;2023-04-15T09:05:31;101114.91;;;12.03;66.01
68871;BME280;55906;52.278;6.808;2023-04-15T09:07:59;101119.16;;;11.96;66.16
68871;BME280;55906;52.278;6.808;2023-04-15T09:10:26;101123.16;;;11.80;66.03
68871;BME280;55906;52.278;6.808;2023-04-15T09:12:53;101122.88;;;12.04;65.84
68871;BME280;55906;52.278;6.808;2023-04-15T09:15:20;101124.19;;;12.23;65.37
68871;BME280;55906;52.278;6.808;2023-04-15T09:17:48;101134.28;;;12.41;64.29
68871;BME280;55906;52.278;6.808;2023-04-15T09:20:15;101133.81;;;12.21;64.98
68871;BME280;55906;52.278;6.808;2023-04-15T09:22:44;101131.03;;;12.15;65.41
68871;BME280;55906;52.278;6.808;2023-04-15T09:25:31;101146.53;;;11.70;66.45
68871;BME280;55906;52.278;6.808;2023-04-15T09:28:00;101145.56;;;11.66;66.83
68871;BME280;55906;52.278;6.808;2023-04-15T09:30:27;101143.59;;;11.58;66.80
68871;BME280;55906;52.278;6.808;2023-04-15T09:32:55;101138.03;;;11.47;67.02
68871;BME280;55906;52.278;6.808;2023-04-15T09:35:24;101151.41;;;11.54;66.63
68871;BME280;55906;52.278;6.808;2023-04-15T09:37:52;101150.19;;;11.73;65.67
68871;BME280;55906;52.278;6.808;2023-04-15T09:40:32;101152.66;;;11.69;65.42
68871;BME280;55906;52.278;6.808;2023-04-15T09:42:59;101157.69;;;11.60;66.31
68871;BME280;55906;52.278;6.808;2023-04-15T09:45:26;101155.50;;;11.75;65.94
68871;BME280;55906;52.278;6.808;2023-04-15T09:47:53;101156.56;;;11.81;66.18
68871;BME280;55906;52.278;6.808;2023-04-15T09:50:20;101159.94;;;11.44;67.57
68871;BME280;55906;52.278;6.808;2023-04-15T09:52:47;101158.06;;;11.72;66.75
68871;BME280;55906;52.278;6.808;2023-04-15T09:55:16;101164.59;;;11.86;65.98
68871;BME280;55906;52.278;6.808;2023-04-15T09:57:45;101169.16;;;11.93;65.91
68871;BME280;55906;52.278;6.808;2023-04-15T10:00:13;101172.53;;;11.88;65.96
68871;BME280;55906;52.278;6.808;2023-04-15T10:02:40;101168.91;;;11.82;66.31
68871;BME280;55906;52.278;6.808;2023-04-15T10:05:09;101174.34;;;11.89;65.82
68871;BME280;55906;52.278;6.808;2023-04-15T10:07:37;101176.50;;;11.72;65.83
68871;BME280;55906;52.278;6.808;2023-04-15T10:10:06;101174.13;;;11.81;66.43
68871;BME280;55906;52.278;6.808;2023-04-15T10:12:36;101170.66;;;11.82;65.55
68871;BME280;55906;52.278;6.808;2023-04-15T10:15:05;101175.56;;;12.03;65.15
68871;BME280;55906;52.278;6.808;2023-04-15T10:17:33;101172.66;;;12.28;64.10
68871;BME280;55906;52.278;6.808;2023-04-15T10:20:02;101177.72;;;12.19;64.03
68871;BME280;55906;52.278;6.808;2023-04-15T10:22:29;101177.28;;;12.37;64.58
68871;BME280;55906;52.278;6.808;2023-04-15T10:24:57;101175.28;;;12.27;64.08
68871;BME280;55906;52.278;6.808;2023-04-15T10:27:24;101179.06;;;12.38;63.54
68871;BME280;55906;52.278;6.808;2023-04-15T10:29:51;101184.66;;;12.15;64.22
68871;BME280;55906;52.278;6.808;2023-04-15T10:32:20;101186.75;;;12.29;64.11
68871;BME280;55906;52.278;6.808;2023-04-15T10:34:48;101188.34;;;12.22;63.95
68871;BME280;55906;52.278;6.808;2023-04-15T10:37:20;101185.03;;;12.31;64.53
68871;BME280;55906;52.278;6.808;2023-04-15T10:39:46;101192.72;;;12.22;64.06
68871;BME280;55906;52.278;6.808;2023-04-15T10:42:15;101196.94;;;12.13;64.02
68871;BME280;55906;52.278;6.808;2023-04-15T10:44:44;101189.88;;;12.12;63.77
68871;BME280;55906;52.278;6.808;2023-04-15T10:47:15;101200.75;;;12.26;63.71
68871;BME280;55906;52.278;6.808;2023-04-15T10:49:47;101195.78;;;12.38;63.21
68871;BME280;55906;52.278;6.808;2023-04-15T10:52:15;101190.38;;;12.34;63.77
68871;BME280;55906;52.278;6.808;2023-04-15T10:54:43;101190.63;;;12.44;63.63
68871;BME280;55906;52.278;6.808;2023-04-15T10:57:14;101197.25;;;12.27;63.78
68871;BME280;55906;52.278;6.808;2023-04-15T11:00:03;101196.78;;;12.07;64.69
68871;BME280;55906;52.278;6.808;2023-04-15T11:02:43;101197.38;;;12.32;63.94
68871;BME280;55906;52.278;6.808;2023-04-15T11:05:12;101197.75;;;12.11;64.57
68871;BME280;55906;52.278;6.808;2023-04-15T11:07:47;101208.56;;;12.22;64.54
68871;BME280;55906;52.278;6.808;2023-04-15T11:13:22;101205.66;;;12.47;63.92
68871;BME280;55906;52.278;6.808;2023-04-15T11:15:55;101205.72;;;12.50;63.07
68871;BME280;55906;52.278;6.808;2023-04-15T11:18:26;101210.88;;;12.45;63.23
68871;BME280;55906;52.278;6.808;2023-04-15T11:20:57;101199.19;;;12.34;63.82
68871;BME280;55906;52.278;6.808;2023-04-15T11:23:30;101210.16;;;12.15;64.06
68871;BME280;55906;52.278;6.808;2023-04-15T11:25:57;101206.00;;;12.25;63.74
68871;BME280;55906;52.278;6.808;2023-04-15T11:28:25;101218.88;;;12.12;64.13
68871;BME280;55906;52.278;6.808;2023-04-15T11:30:53;101226.47;;;12.35;63.69
68871;BME280;55906;52.278;6.808;2023-04-15T11:33:21;101227.03;;;12.22;64.35
68871;BME280;55906;52.278;6.808;2023-04-15T11:35:49;101219.47;;;12.37;64.07
68871;BME280;55906;52.278;6.808;2023-04-15T11:38:19;101224.72;;;12.35;64.61
68871;BME280;55906;52.278;6.808;2023-04-15T11:40:45;101229.31;;;12.08;65.04
68871;BME280;55906;52.278;6.808;2023-04-15T11:43:14;101228.56;;;12.13;65.22
68871;BME280;55906;52.278;6.808;2023-04-15T11:45:49;101230.34;;;12.14;65.19
68871;BME280;55906;52.278;6.808;2023-04-15T11:48:17;101237.66;;;12.25;64.90
68871;BME280;55906;52.278;6.808;2023-04-15T11:50:44;101238.66;;;11.95;65.97
68871;BME280;55906;52.278;6.808;2023-04-15T11:53:12;101240.69;;;12.05;65.88
68871;BME280;55906;52.278;6.808;2023-04-15T11:55:43;101233.88;;;12.15;65.37
68871;BME280;55906;52.278;6.808;2023-04-15T11:58:12;101246.56;;;12.30;64.95
68871;BME280;55906;52.278;6.808;2023-04-15T12:00:45;101240.03;;;12.50;64.22
68871;BME280;55906;52.278;6.808;2023-04-15T12:03:23;101246.72;;;12.36;63.86
68871;BME280;55906;52.278;6.808;2023-04-15T12:06:14;101246.06;;;12.44;64.32
68871;BME280;55906;52.278;6.808;2023-04-15T12:08:58;101243.75;;;12.22;64.68
68871;BME280;55906;52.278;6.808;2023-04-15T12:11:40;101258.97;;;12.34;64.57
68871;BME280;55906;52.278;6.808;2023-04-15T12:14:14;101253.44;;;12.23;64.71
68871;BME280;55906;52.278;6.808;2023-04-15T12:16:42;101265.84;;;12.27;64.57
68871;BME280;55906;52.278;6.808;2023-04-15T12:19:11;101265.47;;;11.79;66.03
68871;BME280;55906;52.278;6.808;2023-04-15T12:21:38;101270.00;;;11.84;66.68
68871;BME280;55906;52.278;6.808;2023-04-15T12:24:07;101269.16;;;11.85;66.71
68871;BME280;55906;52.278;6.808;2023-04-15T12:26:37;101283.22;;;11.86;66.93
68871;BME280;55906;52.278;6.808;2023-04-15T12:29:05;101283.19;;;11.84;66.72
68871;BME280;55906;52.278;6.808;2023-04-15T12:31:33;101281.81;;;11.99;66.06
68871;BME280;55906;52.278;6.808;2023-04-15T12:34:00;101285.41;;;11.71;67.19
68871;BME280;55906;52.278;6.808;2023-04-15T12:36:27;101295.78;;;11.66;68.05
68871;BME280;55906;52.278;6.808;2023-04-15T12:38:57;101300.00;;;11.60;67.96
68871;BME280;55906;52.278;6.808;2023-04-15T12:41:23;101300.34;;;11.70;67.45
68871;BME280;55906;52.278;6.808;2023-04-15T12:43:51;101306.78;;;11.80;68.26
68871;BME280;55906;52.278;6.808;2023-04-15T12:46:18;101309.59;;;11.58;67.89
68871;BME280;55906;52.278;6.808;2023-04-15T12:48:46;101312.44;;;11.65;67.61
68871;BME280;55906;52.278;6.808;2023-04-15T12:51:13;101315.03;;;11.64;67.87
68871;BME280;55906;52.278;6.808;2023-04-15T12:53:39;101317.19;;;11.47;68.28
68871;BME280;55906;52.278;6.808;2023-04-15T12:56:06;101311.47;;;11.62;68.23
68871;BME280;55906;52.278;6.808;2023-04-15T12:58:33;101314.25;;;11.66;67.82
68871;BME280;55906;52.278;6.808;2023-04-15T13:01:01;101311.22;;;11.81;67.62